Time;durP1;ratioP1;P1;durP2;ratioP2;P2;SDS_P1;SDS_P2;PMS_P1;PMS_P2;Temp;Humidity;BMP_temperature;BMP_pressure;BME280_temperature;BME280_humidity;BME280_pressure;Samples;Min_cycle;Max_cycle;Signal;HPM_P1;HPM_P2
2023/03/03 00:01:35;;;;;;;108.65;35.88;;;;;;;;;;5024572;28;20091;-57
2023/03/03 00:04:01;;;;;;;108.97;34.78;;;;;;;;;;5020269;28;20079;-58
2023/03/03 00:06:26;;;;;;;107.35;36.78;;;;;;;;;;5019486;28;20029;-56
2023/03/03 00:08:51;;;;;;;117.55;38.35;;;;;;;;;;5026760;28;20752;-58
2023/03/03 00:11:17;;;;;;;123.18;39.15;;;;;;;;;;5020697;28;20093;-53
2023/03/03 00:13:44;;;;;;;119.28;37.72;;;;;;;;;;5023094;28;20033;-62
2023/03/03 00:16:30;;;;;;;120.30;37.90;;;;;;;;;;5018209;28;20512;-62
2023/03/03 00:18:55;;;;;;;109.70;37.10;;;;;;;;;;5019626;28;20771;-62
2023/03/03 00:21:28;;;;;;;124.55;38.90;;;;;;;;;;5026464;28;20029;-59
2023/03/03 00:23:54;;;;;;;115.68;39.85;;;;;;;;;;5008163;28;20075;-58
2023/03/03 00:26:21;;;;;;;129.45;39.65;;;;;;;;;;5020883;28;20580;-57
2023/03/03 00:28:47;;;;;;;122.57;40.00;;;;;;;;;;5017221;28;20646;-58
2023/03/03 00:31:20;;;;;;;131.18;40.72;;;;;;;;;;5018244;28;20025;-64
2023/03/03 00:33:49;;;;;;;112.90;38.40;;;;;;;;;;5020677;28;20502;-62
2023/03/03 00:36:15;;;;;;;114.47;37.53;;;;;;;;;;4996989;28;20052;-59
2023/03/03 00:38:41;;;;;;;112.25;37.10;;;;;;;;;;5016997;28;20398;-61
2023/03/03 00:41:15;;;;;;;110.82;37.47;;;;;;;;;;5025054;28;20436;-64
2023/03/03 00:43:41;;;;;;;123.97;38.33;;;;;;;;;;5032892;28;20120;-62
2023/03/03 00:46:08;;;;;;;106.60;36.03;;;;;;;;;;5017273;28;20078;-59
2023/03/03 00:48:37;;;;;;;126.85;40.00;;;;;;;;;;5022362;28;20127;-52
2023/03/03 00:51:22;;;;;;;131.88;38.85;;;;;;;;;;5018874;28;20060;-59
2023/03/03 00:53:48;;;;;;;116.55;39.10;;;;;;;;;;5024312;28;20034;-56
2023/03/03 00:56:14;;;;;;;111.95;37.72;;;;;;;;;;5019977;28;20041;-53
2023/03/03 00:58:39;;;;;;;130.80;40.13;;;;;;;;;;5017280;28;20035;-56
2023/03/03 01:01:04;;;;;;;116.60;37.30;;;;;;;;;;5024674;28;20144;-56
2023/03/03 01:03:39;;;;;;;126.63;39.05;;;;;;;;;;5017104;28;20033;-54
2023/03/03 01:06:04;;;;;;;120.68;39.35;;;;;;;;;;5022713;28;20106;-61
2023/03/03 01:08:31;;;;;;;127.53;41.10;;;;;;;;;;5025379;28;20395;-61
2023/03/03 01:10:57;;;;;;;129.93;40.90;;;;;;;;;;5014722;28;20083;-61
2023/03/03 01:13:29;;;;;;;137.88;41.63;;;;;;;;;;5021394;28;20034;-63
2023/03/03 01:15:54;;;;;;;136.65;39.20;;;;;;;;;;5017671;28;20398;-57
2023/03/03 01:18:22;;;;;;;139.75;42.45;;;;;;;;;;5018853;28;20029;-63
2023/03/03 01:20:49;;;;;;;140.30;40.70;;;;;;;;;;5023407;28;20048;-61
2023/03/03 01:23:14;;;;;;;149.15;45.40;;;;;;;;;;5017052;28;20390;-57
2023/03/03 01:25:39;;;;;;;124.03;38.40;;;;;;;;;;5008230;28;20048;-59
2023/03/03 01:28:05;;;;;;;121.55;39.45;;;;;;;;;;5017381;28;20091;-59
2023/03/03 01:30:30;;;;;;;141.93;41.88;;;;;;;;;;5017708;28;20037;-60
2023/03/03 01:32:56;;;;;;;127.75;40.97;;;;;;;;;;5023912;28;20704;-59
2023/03/03 01:35:21;;;;;;;131.55;39.85;;;;;;;;;;5013456;28;20030;-59
2023/03/03 01:37:47;;;;;;;127.68;40.25;;;;;;;;;;5015678;28;20053;-52
2023/03/03 01:40:24;;;;;;;133.43;39.55;;;;;;;;;;5015262;28;20030;-59
2023/03/03 01:42:49;;;;;;;127.28;39.20;;;;;;;;;;5015633;28;20470;-60
2023/03/03 01:45:17;;;;;;;118.22;37.83;;;;;;;;;;5022200;28;20790;-56
2023/03/03 01:47:54;;;;;;;133.40;39.70;;;;;;;;;;5017672;28;20029;-53
2023/03/03 01:50:20;;;;;;;;;;;;;;;;;;5021042;28;20052;-61
2023/03/03 01:52:45;;;;;;;117.37;34.53;;;;;;;;;;5015650;28;19913;-58
2023/03/03 01:55:12;;;;;;;123.18;37.90;;;;;;;;;;5018378;28;20864;-55
2023/03/03 01:57:42;;;;;;;119.82;37.13;;;;;;;;;;5021707;28;20048;-56
2023/03/03 02:00:09;;;;;;;127.35;39.72;;;;;;;;;;5017301;28;20041;-62
2023/03/03 02:02:45;;;;;;;127.50;39.38;;;;;;;;;;5015448;28;20998;-53
2023/03/03 02:05:12;;;;;;;128.07;40.10;;;;;;;;;;5021315;28;20037;-61
2023/03/03 02:07:37;;;;;;;130.57;38.55;;;;;;;;;;5016903;28;20183;-54
2023/03/03 02:10:09;;;;;;;128.30;41.00;;;;;;;;;;5003644;28;20041;-52
2023/03/03 02:12:37;;;;;;;133.55;40.33;;;;;;;;;;5016301;28;20049;-62
2023/03/03 02:15:23;;;;;;;128.90;37.67;;;;;;;;;;5013746;28;20710;-58
2023/03/03 02:17:51;;;;;;;138.45;39.50;;;;;;;;;;5013082;28;20037;-56
2023/03/03 02:20:19;;;;;;;135.32;38.88;;;;;;;;;;5015497;28;20083;-62
2023/03/03 02:22:52;;;;;;;139.38;40.72;;;;;;;;;;5022202;28;20044;-58
2023/03/03 02:25:21;;;;;;;150.02;42.15;;;;;;;;;;5023821;28;20034;-57
2023/03/03 02:27:49;;;;;;;129.23;38.58;;;;;;;;;;5031929;28;20051;-59
2023/03/03 02:30:15;;;;;;;148.43;41.30;;;;;;;;;;5021312;28;20470;-60
2023/03/03 02:32:41;;;;;;;148.57;41.10;;;;;;;;;;5015001;28;20065;-61
2023/03/03 02:35:26;;;;;;;132.52;42.13;;;;;;;;;;5015505;28;20501;-59
2023/03/03 02:37:52;;;;;;;138.73;40.25;;;;;;;;;;5021475;28;20477;-58
2023/03/03 02:40:20;;;;;;;148.13;41.42;;;;;;;;;;5015240;28;20030;-59
2023/03/03 02:42:47;;;;;;;155.52;43.05;;;;;;;;;;5023031;28;20040;-59
2023/03/03 02:45:13;;;;;;;;;;;;;;;;;;5016359;28;20172;-60
2023/03/03 02:47:38;;;;;;;135.90;36.17;;;;;;;;;;5015174;28;19992;-55
2023/03/03 02:50:04;;;;;;;130.95;36.33;;;;;;;;;;5020792;28;20044;-62
2023/03/03 02:52:29;;;;;;;146.15;39.97;;;;;;;;;;5018737;28;20029;-64
2023/03/03 02:54:54;;;;;;;145.27;39.10;;;;;;;;;;5021035;28;20041;-60
2023/03/03 02:57:20;;;;;;;149.00;42.83;;;;;;;;;;5014200;28;20037;-57
2023/03/03 02:59:47;;;;;;;154.75;43.25;;;;;;;;;;5014146;28;20466;-57
2023/03/03 03:02:15;;;;;;;153.23;41.30;;;;;;;;;;5024752;28;20111;-57
2023/03/03 03:04:41;;;;;;;163.20;44.80;;;;;;;;;;5021238;28;20510;-58
2023/03/03 03:07:08;;;;;;;148.30;42.03;;;;;;;;;;5021456;28;20136;-70
2023/03/03 03:09:35;;;;;;;146.02;41.72;;;;;;;;;;5020585;28;20130;-57
2023/03/03 03:12:01;;;;;;;149.75;44.65;;;;;;;;;;5018153;28;20661;-55
2023/03/03 03:14:28;;;;;;;160.57;44.70;;;;;;;;;;5024863;28;20033;-65
2023/03/03 03:16:54;;;;;;;175.43;48.05;;;;;;;;;;5017718;28;20067;-62
2023/03/03 03:19:23;;;;;;;167.35;44.92;;;;;;;;;;5021875;28;20041;-56
2023/03/03 03:21:48;;;;;;;168.13;45.65;;;;;;;;;;5006909;28;20109;-60
2023/03/03 03:24:14;;;;;;;175.55;47.50;;;;;;;;;;5018288;28;20017;-61
2023/03/03 03:26:45;;;;;;;168.40;43.85;;;;;;;;;;5024143;28;20025;-53
2023/03/03 03:29:10;;;;;;;158.90;44.15;;;;;;;;;;5016282;28;20025;-61
2023/03/03 03:31:36;;;;;;;164.52;43.95;;;;;;;;;;5019116;28;20025;-56
2023/03/03 03:34:02;;;;;;;165.45;45.30;;;;;;;;;;5007241;28;20129;-61
2023/03/03 03:36:28;;;;;;;166.52;47.35;;;;;;;;;;5004064;28;20030;-58
2023/03/03 03:38:53;;;;;;;162.07;45.63;;;;;;;;;;5022803;28;20036;-62
2023/03/03 03:41:20;;;;;;;163.77;47.47;;;;;;;;;;5013553;28;20024;-59
2023/03/03 03:43:45;;;;;;;169.55;48.00;;;;;;;;;;5017028;28;20535;-57
2023/03/03 03:46:11;;;;;;;165.68;45.97;;;;;;;;;;5023338;28;20123;-60
2023/03/03 03:48:37;;;;;;;163.95;46.85;;;;;;;;;;5018343;28;20041;-55
2023/03/03 03:51:04;;;;;;;172.43;46.88;;;;;;;;;;5024460;28;20044;-58
2023/03/03 03:53:31;;;;;;;168.95;48.65;;;;;;;;;;5017474;28;20389;-62
2023/03/03 03:55:56;;;;;;;158.35;46.47;;;;;;;;;;5019114;28;20034;-59
2023/03/03 03:58:22;;;;;;;150.77;43.58;;;;;;;;;;5024079;28;20041;-59
2023/03/03 04:00:53;;;;;;;154.05;45.45;;;;;;;;;;5019191;28;20573;-60
2023/03/03 04:03:18;;;;;;;158.30;45.53;;;;;;;;;;5024049;28;20036;-55
2023/03/03 04:05:46;;;;;;;176.00;49.85;;;;;;;;;;5018345;28;20060;-55
2023/03/03 04:08:11;;;;;;;163.63;46.38;;;;;;;;;;5018511;28;20533;-63
2023/03/03 04:10:38;;;;;;;162.10;46.10;;;;;;;;;;5021914;28;20026;-55
2023/03/03 04:13:04;;;;;;;157.47;46.90;;;;;;;;;;5017679;28;20395;-54
2023/03/03 04:15:31;;;;;;;164.57;45.92;;;;;;;;;;5023870;28;20120;-56
2023/03/03 04:17:56;;;;;;;152.93;46.00;;;;;;;;;;5016020;28;20498;-58
2023/03/03 04:20:22;;;;;;;156.73;46.70;;;;;;;;;;5017815;28;20084;-57
2023/03/03 04:22:48;;;;;;;171.10;46.67;;;;;;;;;;5020796;28;20464;-56
2023/03/03 04:25:15;;;;;;;162.35;46.60;;;;;;;;;;5006055;28;20347;-62
2023/03/03 04:27:42;;;;;;;163.57;46.70;;;;;;;;;;5006324;28;20080;-61
2023/03/03 04:30:09;;;;;;;171.43;49.95;;;;;;;;;;5000955;28;20028;-65
2023/03/03 04:32:36;;;;;;;176.43;47.67;;;;;;;;;;5012692;28;20033;-57
2023/03/03 04:35:04;;;;;;;164.57;46.15;;;;;;;;;;5024662;28;20076;-60
2023/03/03 04:37:32;;;;;;;;;;;;;;;;;;5019337;28;20021;-57
2023/03/03 04:40:01;;;;;;;147.15;39.65;;;;;;;;;;5020160;28;20021;-64
2023/03/03 04:42:27;;;;;;;151.82;42.60;;;;;;;;;;5038774;28;20545;-58
2023/03/03 04:44:53;;;;;;;159.35;44.58;;;;;;;;;;5002817;28;20125;-56
2023/03/03 04:47:18;;;;;;;154.73;42.70;;;;;;;;;;5009450;28;20037;-60
2023/03/03 04:49:44;;;;;;;187.68;48.00;;;;;;;;;;5000938;28;20022;-65
2023/03/03 04:52:09;;;;;;;172.85;48.25;;;;;;;;;;5002433;28;20030;-53
2023/03/03 04:54:36;;;;;;;174.75;48.15;;;;;;;;;;5032933;28;20045;-52
2023/03/03 04:57:01;;;;;;;179.02;47.28;;;;;;;;;;4996733;28;20036;-61
2023/03/03 04:59:27;;;;;;;179.00;49.25;;;;;;;;;;5007232;28;20642;-64
2023/03/03 05:01:53;;;;;;;174.07;49.92;;;;;;;;;;5004528;28;20033;-58
2023/03/03 05:04:18;;;;;;;172.30;50.40;;;;;;;;;;5016606;28;20030;-57
2023/03/03 05:06:44;;;;;;;169.98;52.40;;;;;;;;;;5024844;28;20124;-57
2023/03/03 05:09:09;;;;;;;198.07;52.65;;;;;;;;;;5019881;28;20037;-56
2023/03/03 05:11:34;;;;;;;168.20;46.05;;;;;;;;;;5021671;28;20032;-55
2023/03/03 05:14:01;;;;;;;162.65;47.88;;;;;;;;;;5017540;28;20037;-54
2023/03/03 05:16:27;;;;;;;188.45;48.25;;;;;;;;;;5016234;28;20037;-65
2023/03/03 05:18:52;;;;;;;156.48;45.55;;;;;;;;;;5023116;28;20418;-62
2023/03/03 05:21:17;;;;;;;155.23;43.72;;;;;;;;;;5018406;28;20045;-57
2023/03/03 05:23:43;;;;;;;161.30;46.65;;;;;;;;;;5024393;28;20446;-56
2023/03/03 05:26:08;;;;;;;167.73;47.40;;;;;;;;;;5016629;28;20560;-54
2023/03/03 05:28:34;;;;;;;173.98;48.28;;;;;;;;;;5016773;28;20040;-60
2023/03/03 05:30:59;;;;;;;191.80;50.25;;;;;;;;;;5021878;28;20115;-52
2023/03/03 05:33:24;;;;;;;158.50;44.35;;;;;;;;;;5018388;28;20052;-56
2023/03/03 05:35:56;;;;;;;171.27;50.88;;;;;;;;;;5022279;28;20502;-56
2023/03/03 05:38:22;;;;;;;181.45;49.72;;;;;;;;;;5016788;28;20060;-62
2023/03/03 05:40:47;;;;;;;186.35;50.78;;;;;;;;;;5015339;28;20331;-57
2023/03/03 05:43:13;;;;;;;170.68;46.90;;;;;;;;;;5022432;28;20030;-56
2023/03/03 05:45:38;;;;;;;147.20;45.03;;;;;;;;;;5017003;28;20451;-57
2023/03/03 05:48:03;;;;;;;159.00;45.97;;;;;;;;;;5023843;28;20037;-61
2023/03/03 05:50:29;;;;;;;163.60;47.13;;;;;;;;;;5015782;28;20069;-59
2023/03/03 05:52:54;;;;;;;168.35;47.38;;;;;;;;;;5017569;28;20044;-63
2023/03/03 05:55:20;;;;;;;174.80;51.70;;;;;;;;;;5021625;28;20504;-60
2023/03/03 05:57:45;;;;;;;200.27;54.28;;;;;;;;;;5014708;28;20034;-57
2023/03/03 06:00:11;;;;;;;190.00;53.97;;;;;;;;;;5021893;28;20121;-64
2023/03/03 06:02:39;;;;;;;182.20;48.67;;;;;;;;;;5015050;28;20022;-64
2023/03/03 06:05:05;;;;;;;151.35;46.72;;;;;;;;;;5016010;28;20142;-58
2023/03/03 06:07:30;;;;;;;169.40;47.72;;;;;;;;;;5002367;28;20040;-55
2023/03/03 06:09:56;;;;;;;172.98;48.83;;;;;;;;;;5013590;28;20029;-54
2023/03/03 06:12:22;;;;;;;172.65;46.92;;;;;;;;;;5019964;28;20148;-55
2023/03/03 06:14:47;;;;;;;176.73;47.53;;;;;;;;;;5017953;28;20128;-59
2023/03/03 06:17:13;;;;;;;159.20;47.30;;;;;;;;;;5015498;28;20053;-57
2023/03/03 06:19:40;;;;;;;156.30;47.20;;;;;;;;;;5025972;28;20044;-56
2023/03/03 06:22:05;;;;;;;186.45;47.75;;;;;;;;;;5014772;28;20120;-55
2023/03/03 06:24:31;;;;;;;177.40;48.50;;;;;;;;;;5023062;28;20342;-65
2023/03/03 06:26:56;;;;;;;163.93;48.13;;;;;;;;;;5019385;28;20026;-54
2023/03/03 06:29:22;;;;;;;161.30;48.90;;;;;;;;;;5019278;28;20032;-58
2023/03/03 06:31:47;;;;;;;184.88;51.88;;;;;;;;;;5021607;28;21757;-55
2023/03/03 06:34:13;;;;;;;169.65;49.70;;;;;;;;;;5017776;28;20033;-59
2023/03/03 06:36:38;;;;;;;162.00;48.90;;;;;;;;;;5025462;28;20033;-58
2023/03/03 06:39:04;;;;;;;188.23;49.75;;;;;;;;;;5020090;28;20025;-58
2023/03/03 06:41:29;;;;;;;179.45;50.67;;;;;;;;;;5020304;28;20557;-61
2023/03/03 06:43:55;;;;;;;187.45;50.85;;;;;;;;;;5030413;28;20602;-61
2023/03/03 06:46:20;;;;;;;180.32;50.85;;;;;;;;;;5021373;28;20052;-59
2023/03/03 06:48:46;;;;;;;168.77;48.25;;;;;;;;;;5024294;28;20029;-59
2023/03/03 06:51:18;;;;;;;180.30;50.58;;;;;;;;;;5017157;28;20369;-59
2023/03/03 06:53:44;;;;;;;171.23;50.08;;;;;;;;;;5018837;28;20478;-56
2023/03/03 06:56:10;;;;;;;200.60;53.47;;;;;;;;;;5021751;28;20045;-62
2023/03/03 06:58:35;;;;;;;196.00;53.70;;;;;;;;;;5015516;28;20060;-63
2023/03/03 07:01:01;;;;;;;184.65;55.10;;;;;;;;;;5020124;28;20522;-54
2023/03/03 07:03:31;;;;;;;187.30;53.67;;;;;;;;;;5015694;28;20036;-62
2023/03/03 07:05:56;;;;;;;186.15;53.28;;;;;;;;;;5009534;28;20044;-55
2023/03/03 07:08:22;;;;;;;188.50;55.47;;;;;;;;;;5020475;28;20104;-61
2023/03/03 07:10:48;;;;;;;188.35;54.85;;;;;;;;;;5012539;28;20088;-61
2023/03/03 07:13:18;;;;;;;183.48;54.45;;;;;;;;;;5016483;28;20113;-69
2023/03/03 07:15:44;;;;;;;197.32;54.85;;;;;;;;;;5018966;28;20117;-61
2023/03/03 07:18:31;;;;;;;183.88;52.75;;;;;;;;;;5019138;28;20531;-65
2023/03/03 07:20:57;;;;;;;168.10;49.38;;;;;;;;;;5020396;28;20029;-64
2023/03/03 07:23:23;;;;;;;162.13;50.00;;;;;;;;;;5022247;28;21067;-60
2023/03/03 07:25:49;;;;;;;180.85;54.47;;;;;;;;;;5025796;28;20037;-59
2023/03/03 07:28:17;;;;;;;183.35;50.72;;;;;;;;;;5026919;28;20692;-61
2023/03/03 07:30:43;;;;;;;179.57;52.05;;;;;;;;;;5025305;28;20021;-62
2023/03/03 07:33:17;;;;;;;154.98;49.17;;;;;;;;;;5024744;28;20033;-58
2023/03/03 07:35:43;;;;;;;167.43;48.97;;;;;;;;;;5026814;28;20040;-58
2023/03/03 07:38:23;;;;;;;168.63;50.63;;;;;;;;;;5017465;28;20025;-59
2023/03/03 07:40:51;;;;;;;186.80;53.83;;;;;;;;;;5026235;28;20134;-56
2023/03/03 07:43:36;;;;;;;173.38;53.88;;;;;;;;;;5026437;28;20712;-57
2023/03/03 07:46:02;;;;;;;178.90;54.42;;;;;;;;;;5025290;28;20045;-55
2023/03/03 07:48:35;;;;;;;169.60;51.15;;;;;;;;;;5027096;28;20390;-58
2023/03/03 07:51:02;;;;;;;180.93;51.20;;;;;;;;;;5027355;28;20040;-60
2023/03/03 07:53:27;;;;;;;;;;;;;;;;;;5027304;28;20036;-59
2023/03/03 07:55:53;;;;;;;176.97;49.47;;;;;;;;;;5023052;28;19917;-62
2023/03/03 07:58:23;;;;;;;165.63;49.03;;;;;;;;;;5024293;28;20068;-57
2023/03/03 08:00:51;;;;;;;161.27;49.67;;;;;;;;;;5023125;28;20045;-57
2023/03/03 08:03:18;;;;;;;184.80;50.78;;;;;;;;;;5025250;28;20052;-62
2023/03/03 08:05:48;;;;;;;163.43;49.80;;;;;;;;;;5025229;28;20073;-56
2023/03/03 08:08:29;;;;;;;169.93;49.58;;;;;;;;;;5023516;28;20739;-61
2023/03/03 08:10:55;;;;;;;169.45;51.60;;;;;;;;;;5022262;28;20124;-53
2023/03/03 08:13:27;;;;;;;178.93;53.22;;;;;;;;;;5029252;28;20455;-54
2023/03/03 08:15:58;;;;;;;183.55;54.08;;;;;;;;;;5028034;28;20037;-55
2023/03/03 08:18:27;;;;;;;180.30;53.13;;;;;;;;;;5025990;28;20088;-61
2023/03/03 08:20:56;;;;;;;173.75;52.88;;;;;;;;;;5026470;28;20116;-57
2023/03/03 08:23:22;;;;;;;180.75;51.88;;;;;;;;;;5000326;28;20045;-57
2023/03/03 08:25:48;;;;;;;191.32;56.30;;;;;;;;;;5026266;28;20080;-57
2023/03/03 08:28:14;;;;;;;208.27;60.22;;;;;;;;;;5023264;28;20033;-61
2023/03/03 08:30:39;;;;;;;204.57;57.90;;;;;;;;;;5026249;28;20036;-57
2023/03/03 08:33:04;;;;;;;198.77;59.42;;;;;;;;;;5024907;28;20116;-57
2023/03/03 08:35:30;;;;;;;200.77;58.53;;;;;;;;;;5025768;28;20045;-59
2023/03/03 08:37:55;;;;;;;203.48;55.00;;;;;;;;;;5024087;28;20034;-53
2023/03/03 08:40:21;;;;;;;193.63;55.83;;;;;;;;;;5020250;28;20030;-62
2023/03/03 08:42:46;;;;;;;189.40;54.50;;;;;;;;;;5023916;28;20029;-61
2023/03/03 08:45:11;;;;;;;185.68;54.75;;;;;;;;;;5023993;28;20038;-56
2023/03/03 08:47:37;;;;;;;187.63;53.72;;;;;;;;;;5036902;28;20037;-58
2023/03/03 08:50:03;;;;;;;189.75;54.97;;;;;;;;;;5024237;28;20107;-60
2023/03/03 08:52:28;;;;;;;193.02;54.97;;;;;;;;;;5025952;28;20029;-59
2023/03/03 08:54:53;;;;;;;203.32;57.55;;;;;;;;;;5027045;28;20041;-59
2023/03/03 08:57:19;;;;;;;182.00;55.50;;;;;;;;;;5026526;28;20033;-56
2023/03/03 08:59:46;;;;;;;187.00;56.42;;;;;;;;;;5025247;28;20044;-63
2023/03/03 09:02:11;;;;;;;;;;;;;;;;;;5026105;28;20029;-55
2023/03/03 09:04:37;;;;;;;207.73;54.80;;;;;;;;;;5026835;28;19920;-60
2023/03/03 09:07:02;;;;;;;197.25;56.33;;;;;;;;;;5025034;28;20365;-58
2023/03/03 09:09:27;;;;;;;204.15;59.05;;;;;;;;;;5025569;28;20025;-56
2023/03/03 09:11:57;;;;;;;226.52;63.45;;;;;;;;;;5024849;28;20071;-54
2023/03/03 09:14:25;;;;;;;286.45;69.60;;;;;;;;;;5026359;28;20121;-64
2023/03/03 09:16:50;;;;;;;;;;;;;;;;;;5024926;28;20148;-52
2023/03/03 09:19:21;;;;;;;220.48;57.90;;;;;;;;;;5025697;28;19916;-58
2023/03/03 09:21:46;;;;;;;343.67;82.85;;;;;;;;;;5027440;28;20116;-56
2023/03/03 09:24:18;;;;;;;305.33;77.82;;;;;;;;;;5028149;28;20112;-56
2023/03/03 09:26:47;;;;;;;301.35;78.95;;;;;;;;;;5026333;28;20565;-60
2023/03/03 09:29:12;;;;;;;189.18;55.30;;;;;;;;;;5025441;28;20017;-54
2023/03/03 09:31:41;;;;;;;178.63;55.55;;;;;;;;;;5026369;28;20102;-58
2023/03/03 09:34:17;;;;;;;173.88;55.60;;;;;;;;;;5026169;28;20083;-54
2023/03/03 09:36:42;;;;;;;182.77;56.47;;;;;;;;;;5026033;28;20041;-57
2023/03/03 09:39:15;;;;;;;186.60;57.42;;;;;;;;;;5026262;28;20026;-59
2023/03/03 09:41:52;;;;;;;167.15;54.47;;;;;;;;;;5026086;28;20037;-62
2023/03/03 09:44:23;;;;;;;178.95;55.00;;;;;;;;;;5025012;28;20490;-59
2023/03/03 09:47:00;;;;;;;178.93;55.35;;;;;;;;;;5027344;28;20045;-63
2023/03/03 09:49:41;;;;;;;173.25;51.55;;;;;;;;;;5024781;28;20053;-61
2023/03/03 09:52:25;;;;;;;151.88;50.63;;;;;;;;;;5027433;28;20125;-61
2023/03/03 09:54:50;;;;;;;160.88;50.92;;;;;;;;;;5021812;28;20203;-56
2023/03/03 09:57:19;;;;;;;163.07;52.53;;;;;;;;;;5024165;28;20132;-62
2023/03/03 09:59:50;;;;;;;158.15;51.13;;;;;;;;;;5025324;28;20108;-56
2023/03/03 10:02:28;;;;;;;169.15;54.08;;;;;;;;;;5027389;28;20143;-54
2023/03/03 10:04:56;;;;;;;161.68;51.70;;;;;;;;;;5024812;28;20048;-57
2023/03/03 10:07:40;;;;;;;160.30;49.78;;;;;;;;;;5025652;28;20389;-56
2023/03/03 10:10:08;;;;;;;163.60;51.25;;;;;;;;;;5023937;28;20398;-59
2023/03/03 10:12:49;;;;;;;151.43;52.15;;;;;;;;;;5029218;28;20029;-56
2023/03/03 10:15:31;;;;;;;140.30;46.00;;;;;;;;;;5030247;28;20037;-62
2023/03/03 10:18:15;;;;;;;156.93;51.38;;;;;;;;;;5026591;28;20030;-58
2023/03/03 10:20:48;;;;;;;147.68;49.38;;;;;;;;;;5027921;28;20029;-59
2023/03/03 10:23:19;;;;;;;136.50;47.13;;;;;;;;;;5028681;28;20044;-57
2023/03/03 10:26:03;;;;;;;132.35;46.92;;;;;;;;;;5029175;28;20038;-56
2023/03/03 10:28:31;;;;;;;137.55;47.03;;;;;;;;;;5030856;28;20033;-59
2023/03/03 10:30:56;;;;;;;141.43;48.80;;;;;;;;;;5027785;28;20501;-61
2023/03/03 10:33:28;;;;;;;134.65;46.25;;;;;;;;;;5029333;28;20053;-51
2023/03/03 10:36:02;;;;;;;149.40;46.25;;;;;;;;;;5030392;28;20037;-57
2023/03/03 10:38:33;;;;;;;133.63;46.70;;;;;;;;;;5030037;28;20124;-57
2023/03/03 10:40:58;;;;;;;134.18;45.15;;;;;;;;;;5030012;28;20033;-53
2023/03/03 10:43:44;;;;;;;132.65;46.60;;;;;;;;;;5030486;28;20059;-55
2023/03/03 10:46:25;;;;;;;142.97;48.80;;;;;;;;;;5015236;28;20117;-57
2023/03/03 10:49:05;;;;;;;136.27;46.63;;;;;;;;;;5028800;28;20290;-53
2023/03/03 10:51:39;;;;;;;136.25;44.13;;;;;;;;;;5029114;28;20510;-53
2023/03/03 10:54:16;;;;;;;133.95;46.15;;;;;;;;;;5025969;28;20041;-51
2023/03/03 10:56:53;;;;;;;144.85;48.35;;;;;;;;;;5028968;28;20120;-58
2023/03/03 10:59:24;;;;;;;146.50;49.53;;;;;;;;;;5030215;28;20409;-56
2023/03/03 11:01:57;;;;;;;148.82;48.53;;;;;;;;;;5027862;28;20421;-54
2023/03/03 11:04:36;;;;;;;128.50;46.50;;;;;;;;;;5026326;28;20025;-52
2023/03/03 11:07:08;;;;;;;146.63;48.15;;;;;;;;;;5014958;28;20497;-56
2023/03/03 11:09:39;;;;;;;129.55;45.72;;;;;;;;;;5030023;28;20494;-60
2023/03/03 11:12:07;;;;;;;144.27;47.42;;;;;;;;;;5026875;28;20034;-51
2023/03/03 11:14:46;;;;;;;128.85;45.70;;;;;;;;;;5029288;28;20033;-57
2023/03/03 11:17:35;;;;;;;124.47;43.70;;;;;;;;;;5029471;28;20034;-58
2023/03/03 11:20:23;;;;;;;140.27;48.53;;;;;;;;;;5021361;28;20049;-57
2023/03/03 11:22:57;;;;;;;135.43;48.47;;;;;;;;;;5019624;28;20033;-58
2023/03/03 11:25:41;;;;;;;127.47;45.25;;;;;;;;;;5023657;28;20087;-57
2023/03/03 11:28:26;;;;;;;123.82;44.08;;;;;;;;;;5023857;28;20049;-57
2023/03/03 11:31:04;;;;;;;120.15;44.88;;;;;;;;;;5005215;28;20042;-58
2023/03/03 11:33:43;;;;;;;125.45;44.13;;;;;;;;;;5028225;28;20035;-56
2023/03/03 11:36:18;;;;;;;119.32;43.40;;;;;;;;;;5023190;28;20037;-53
2023/03/03 11:38:55;;;;;;;118.82;44.30;;;;;;;;;;5025616;28;20037;-62
2023/03/03 11:41:29;;;;;;;136.15;44.35;;;;;;;;;;5026997;28;20051;-60
2023/03/03 11:44:13;;;;;;;127.30;42.70;;;;;;;;;;5022899;28;20034;-55
2023/03/03 11:46:45;;;;;;;116.03;41.00;;;;;;;;;;5028059;28;20037;-53
2023/03/03 11:49:14;;;;;;;113.10;42.33;;;;;;;;;;5028130;28;20033;-56
2023/03/03 11:51:45;;;;;;;125.22;44.90;;;;;;;;;;5026364;28;20029;-57
2023/03/03 11:54:37;;;;;;;124.57;43.47;;;;;;;;;;5025642;28;20037;-56
2023/03/03 11:57:08;;;;;;;122.82;42.95;;;;;;;;;;5001365;28;20053;-56
2023/03/03 11:59:41;;;;;;;107.80;41.83;;;;;;;;;;5026961;28;20040;-58
2023/03/03 12:02:06;;;;;;;118.40;43.13;;;;;;;;;;5028975;28;20144;-55
2023/03/03 12:04:49;;;;;;;109.32;42.15;;;;;;;;;;5026785;28;20145;-54
2023/03/03 12:07:35;;;;;;;112.15;42.15;;;;;;;;;;5025134;28;20446;-60
2023/03/03 12:10:03;;;;;;;109.05;41.05;;;;;;;;;;5025796;28;20117;-54
2023/03/03 12:12:46;;;;;;;112.55;43.05;;;;;;;;;;5025397;28;20032;-58
2023/03/03 12:15:30;;;;;;;110.60;41.55;;;;;;;;;;5025372;28;20029;-57
2023/03/03 12:18:06;;;;;;;103.80;39.47;;;;;;;;;;5024328;28;20072;-56
2023/03/03 12:20:47;;;;;;;106.15;39.92;;;;;;;;;;5027502;28;20040;-60
2023/03/03 12:23:12;;;;;;;111.70;40.63;;;;;;;;;;5023938;28;20037;-56
2023/03/03 12:25:42;;;;;;;104.82;40.50;;;;;;;;;;5027812;28;20113;-58
2023/03/03 12:28:07;;;;;;;100.63;39.72;;;;;;;;;;5027719;28;20041;-58
2023/03/03 12:30:42;;;;;;;97.60;41.35;;;;;;;;;;5024066;28;20355;-57
2023/03/03 12:33:26;;;;;;;102.85;41.75;;;;;;;;;;5026875;28;20029;-58
2023/03/03 12:36:02;;;;;;;106.32;39.65;;;;;;;;;;5023228;28;20128;-57
2023/03/03 12:38:39;;;;;;;107.65;41.05;;;;;;;;;;5026133;28;20052;-57
2023/03/03 12:41:26;;;;;;;106.45;41.67;;;;;;;;;;5025839;28;20029;-57
2023/03/03 12:43:57;;;;;;;104.57;40.35;;;;;;;;;;5024749;28;20037;-60
2023/03/03 12:46:52;;;;;;;106.72;41.42;;;;;;;;;;5024744;28;20084;-59
2023/03/03 12:49:18;;;;;;;99.38;39.00;;;;;;;;;;5013257;28;20045;-59
2023/03/03 12:51:46;;;;;;;100.40;39.85;;;;;;;;;;5024658;28;20036;-56
2023/03/03 12:54:11;;;;;;;109.72;40.58;;;;;;;;;;5020023;28;20042;-60
2023/03/03 12:56:59;;;;;;;106.07;40.78;;;;;;;;;;5022998;28;20366;-54
2023/03/03 12:59:39;;;;;;;112.18;43.00;;;;;;;;;;5022924;28;20103;-63
2023/03/03 13:02:08;;;;;;;103.57;40.05;;;;;;;;;;5024482;28;20178;-58
2023/03/03 13:04:40;;;;;;;103.78;42.30;;;;;;;;;;5023994;28;20903;-56
2023/03/03 13:07:09;;;;;;;107.05;39.75;;;;;;;;;;5025399;28;20520;-57
2023/03/03 13:09:43;;;;;;;96.32;40.40;;;;;;;;;;5024098;28;20051;-57
2023/03/03 13:12:14;;;;;;;95.57;40.17;;;;;;;;;;5023653;28;20080;-61
2023/03/03 13:14:48;;;;;;;87.32;38.58;;;;;;;;;;5024877;28;20041;-60
2023/03/03 13:17:32;;;;;;;86.97;38.10;;;;;;;;;;5023488;28;20038;-56
2023/03/03 13:19:59;;;;;;;90.53;39.13;;;;;;;;;;5024914;28;20143;-60
2023/03/03 13:22:25;;;;;;;;;;;;;;;;;;5016253;28;20757;-61
2023/03/03 13:24:58;;;;;;;86.10;38.70;;;;;;;;;;5019292;28;20362;-54
2023/03/03 13:27:25;;;;;;;84.80;40.42;;;;;;;;;;5024196;28;20041;-56
2023/03/03 13:29:57;;;;;;;86.03;38.38;;;;;;;;;;5018357;28;20025;-54
2023/03/03 13:32:27;;;;;;;78.13;38.50;;;;;;;;;;5015995;28;20116;-59
2023/03/03 13:34:57;;;;;;;78.35;38.17;;;;;;;;;;5026281;28;20030;-54
2023/03/03 13:37:37;;;;;;;79.40;37.50;;;;;;;;;;5024087;28;20036;-56
2023/03/03 13:40:03;;;;;;;74.00;37.20;;;;;;;;;;5025953;28;20037;-56
2023/03/03 13:42:35;;;;;;;82.17;39.40;;;;;;;;;;5027734;28;20060;-57
2023/03/03 13:45:05;;;;;;;84.00;39.80;;;;;;;;;;5023963;28;20080;-61
2023/03/03 13:47:41;;;;;;;76.50;36.92;;;;;;;;;;5020187;28;20037;-59
2023/03/03 13:50:15;;;;;;;69.45;36.63;;;;;;;;;;5022182;28;20088;-59
2023/03/03 13:53:01;;;;;;;71.88;37.10;;;;;;;;;;5022048;28;20032;-56
2023/03/03 13:55:34;;;;;;;73.63;36.30;;;;;;;;;;5021700;28;20094;-55
2023/03/03 13:58:10;;;;;;;78.20;36.45;;;;;;;;;;5022028;28;20069;-55
2023/03/03 14:00:50;;;;;;;73.30;35.40;;;;;;;;;;5021944;28;20034;-57
2023/03/03 14:03:18;;;;;;;67.45;35.38;;;;;;;;;;5020498;28;20047;-54
2023/03/03 14:05:50;;;;;;;68.28;36.05;;;;;;;;;;5022077;28;20386;-56
2023/03/03 14:08:15;;;;;;;69.82;37.25;;;;;;;;;;5021964;28;20038;-55
2023/03/03 14:10:47;;;;;;;66.03;36.37;;;;;;;;;;5021422;28;20033;-59
2023/03/03 14:13:17;;;;;;;69.05;33.33;;;;;;;;;;5023667;28;20033;-60
2023/03/03 14:15:49;;;;;;;65.13;34.47;;;;;;;;;;5022845;28;20036;-54
2023/03/03 14:18:17;;;;;;;63.47;34.42;;;;;;;;;;5023613;28;20053;-60
2023/03/03 14:20:52;;;;;;;69.20;34.38;;;;;;;;;;5024521;28;20118;-62
2023/03/03 14:23:18;;;;;;;65.28;35.47;;;;;;;;;;5025244;28;20709;-63